Terminal Aerodrome Forecast
Issued by NWS

Home | Current Version | Previous Version | Graphics & Text | Print | Product List | Glossary On
Versions: 1 2 3 4 5 6 7 8 9 10 11 12 13 14 15 16 17
000
FTUS43 KGRB 012338
TAFAUW
TAF
KAUW 012338Z 0200/0224 21004KT P6SM SCT050 BKN200
     FM020400 VRB02KT 5SM BR SCT120 BKN200
     FM020900 VRB02KT 3SM BR SCT003 SCT015 BKN120
      TEMPO 0209/0213 1SM BR BKN003
     FM021400 29004KT P6SM SCT015 BKN100 PROB30 0216/0220 5SM -SHRA
      BR BKN015=

USA.gov is the U.S. government's official web portal to all federal, state and local government web resources and services.